sensor_id;sensor_type;location;lat;lon;timestamp;pressure;altitude;pressure_sealevel;temperature;humidity
33422;BME280;19763;55.798;37.782;2023-05-08T00:00:20;148147.09;;;3.31;68.64
33422;BME280;19763;55.798;37.782;2023-05-08T00:02:46;148133.06;;;3.25;68.40
33422;BME280;19763;55.798;37.782;2023-05-08T00:05:12;148124.13;;;3.22;68.53
33422;BME280;19763;55.798;37.782;2023-05-08T00:07:38;148119.03;;;3.20;68.87
33422;BME280;19763;55.798;37.782;2023-05-08T00:10:04;148130.50;;;3.24;69.14
33422;BME280;19763;55.798;37.782;2023-05-08T00:12:30;148135.63;;;3.26;68.89
33422;BME280;19763;55.798;37.782;2023-05-08T00:14:56;148131.75;;;3.25;68.57
33422;BME280;19763;55.798;37.782;2023-05-08T00:17:22;148133.06;;;3.25;69.25
33422;BME280;19763;55.798;37.782;2023-05-08T00:19:47;148111.41;;;3.17;69.27
33422;BME280;19763;55.798;37.782;2023-05-08T00:22:13;148092.25;;;3.09;69.53
33422;BME280;19763;55.798;37.782;2023-05-08T00:24:39;148102.47;;;3.13;69.21
33422;BME280;19763;55.798;37.782;2023-05-08T00:27:04;148107.59;;;3.15;70.27
33422;BME280;19763;55.798;37.782;2023-05-08T00:29:30;148115.22;;;3.18;69.40
33422;BME280;19763;55.798;37.782;2023-05-08T00:31:55;148117.78;;;3.19;69.42
33422;BME280;19763;55.798;37.782;2023-05-08T00:34:21;148112.66;;;3.17;69.11
33422;BME280;19763;55.798;37.782;2023-05-08T00:36:47;148112.66;;;3.17;69.19
33422;BME280;19763;55.798;37.782;2023-05-08T00:39:12;148099.91;;;3.12;69.54
33422;BME280;19763;55.798;37.782;2023-05-08T00:41:38;148076.97;;;3.03;70.11
33422;BME280;19763;55.798;37.782;2023-05-08T00:44:03;148087.19;;;3.07;69.94
33422;BME280;19763;55.798;37.782;2023-05-08T00:46:29;148074.41;;;3.02;70.20
33422;BME280;19763;55.798;37.782;2023-05-08T00:48:56;148087.19;;;3.07;69.67
33422;BME280;19763;55.798;37.782;2023-05-08T00:51:22;148073.16;;;3.01;69.86
33422;BME280;19763;55.798;37.782;2023-05-08T00:53:48;148061.69;;;2.97;70.40
33422;BME280;19763;55.798;37.782;2023-05-08T00:56:14;148055.31;;;2.94;69.93
33422;BME280;19763;55.798;37.782;2023-05-08T00:58:42;148065.50;;;2.98;69.90
33422;BME280;19763;55.798;37.782;2023-05-08T01:01:09;148064.22;;;2.98;70.29
33422;BME280;19763;55.798;37.782;2023-05-08T01:03:35;148071.91;;;3.01;69.64
33422;BME280;19763;55.798;37.782;2023-05-08T01:06:03;148048.94;;;2.91;70.20
33422;BME280;19763;55.798;37.782;2023-05-08T01:08:30;148051.50;;;2.92;69.38
33422;BME280;19763;55.798;37.782;2023-05-08T01:33:23;147999.22;;;2.71;71.30
33422;BME280;19763;55.798;37.782;2023-05-08T01:35:52;148001.78;;;2.72;70.76
33422;BME280;19763;55.798;37.782;2023-05-08T01:38:32;148029.84;;;2.84;70.26
33422;BME280;19763;55.798;37.782;2023-05-08T01:41:23;148032.34;;;2.85;70.72
33422;BME280;19763;55.798;37.782;2023-05-08T01:46:24;148036.16;;;2.86;70.07
33422;BME280;19763;55.798;37.782;2023-05-08T01:49:11;148033.66;;;2.85;69.83
33422;BME280;19763;55.798;37.782;2023-05-08T01:51:45;148018.31;;;2.79;70.06
33422;BME280;19763;55.798;37.782;2023-05-08T01:54:14;148029.84;;;2.84;69.73
33422;BME280;19763;55.798;37.782;2023-05-08T01:56:42;148045.09;;;2.90;70.05
33422;BME280;19763;55.798;37.782;2023-05-08T01:59:12;148008.13;;;2.75;70.08
33422;BME280;19763;55.798;37.782;2023-05-08T02:01:40;148026.00;;;2.82;69.65
33422;BME280;19763;55.798;37.782;2023-05-08T02:04:07;148028.53;;;2.83;69.52
33422;BME280;19763;55.798;37.782;2023-05-08T02:06:33;148010.69;;;2.76;69.12
33422;BME280;19763;55.798;37.782;2023-05-08T02:09:01;148028.53;;;2.83;68.90
33422;BME280;19763;55.798;37.782;2023-05-08T02:11:27;148045.09;;;2.90;69.04
33422;BME280;19763;55.798;37.782;2023-05-08T02:13:54;148062.94;;;2.97;69.28
33422;BME280;19763;55.798;37.782;2023-05-08T02:16:23;148070.59;;;3.00;69.19
33422;BME280;19763;55.798;37.782;2023-05-08T02:18:51;148087.19;;;3.07;68.58
33422;BME280;19763;55.798;37.782;2023-05-08T02:21:18;148097.38;;;3.11;68.52
33422;BME280;19763;55.798;37.782;2023-05-08T02:23:46;148087.19;;;3.07;67.71
33422;BME280;19763;55.798;37.782;2023-05-08T02:26:14;148147.09;;;3.31;66.62
33422;BME280;19763;55.798;37.782;2023-05-08T02:28:41;148256.75;;;3.75;66.19
33422;BME280;19763;55.798;37.782;2023-05-08T02:31:11;148297.53;;;3.92;65.61
33422;BME280;19763;55.798;37.782;2023-05-08T02:33:40;148303.94;;;3.94;64.17
33422;BME280;19763;55.798;37.782;2023-05-08T02:36:07;148309.06;;;3.96;64.20
33422;BME280;19763;55.798;37.782;2023-05-08T02:38:34;148389.41;;;4.29;64.05
33422;BME280;19763;55.798;37.782;2023-05-08T02:41:02;148509.38;;;4.77;62.74
33422;BME280;19763;55.798;37.782;2023-05-08T02:43:30;148486.41;;;4.68;63.01
33422;BME280;19763;55.798;37.782;2023-05-08T02:46:13;148506.84;;;4.76;62.46
33422;BME280;19763;55.798;37.782;2023-05-08T02:48:50;148483.84;;;4.67;63.50
33422;BME280;19763;55.798;37.782;2023-05-08T02:51:32;148517.06;;;4.80;63.81
33422;BME280;19763;55.798;37.782;2023-05-08T02:54:03;148555.34;;;4.96;63.70
33422;BME280;19763;55.798;37.782;2023-05-08T02:56:39;148560.47;;;4.98;62.59
33422;BME280;19763;55.798;37.782;2023-05-08T02:59:19;148591.13;;;5.10;62.09
33422;BME280;19763;55.798;37.782;2023-05-08T03:01:50;148575.78;;;5.04;62.47
33422;BME280;19763;55.798;37.782;2023-05-08T03:04:31;148584.72;;;5.08;60.49
33422;BME280;19763;55.798;37.782;2023-05-08T03:06:59;148630.69;;;5.26;61.35
33422;BME280;19763;55.798;37.782;2023-05-08T03:10:04;148653.66;;;5.35;60.23
33422;BME280;19763;55.798;37.782;2023-05-08T03:12:23;148675.38;;;5.44;60.17
33422;BME280;19763;55.798;37.782;2023-05-08T03:15:03;148690.72;;;5.50;58.92
33422;BME280;19763;55.798;37.782;2023-05-08T03:17:32;148657.50;;;5.37;58.86
33422;BME280;19763;55.798;37.782;2023-05-08T03:20:02;148672.84;;;5.43;58.53
33422;BME280;19763;55.798;37.782;2023-05-08T03:22:31;148661.31;;;5.39;58.29
33422;BME280;19763;55.798;37.782;2023-05-08T03:25:00;148709.88;;;5.58;58.78
33422;BME280;19763;55.798;37.782;2023-05-08T03:27:28;148708.59;;;5.58;58.58
33422;BME280;19763;55.798;37.782;2023-05-08T03:29:55;148755.84;;;5.77;58.21
33422;BME280;19763;55.798;37.782;2023-05-08T03:32:25;148763.50;;;5.80;58.13
33422;BME280;19763;55.798;37.782;2023-05-08T03:34:53;148810.88;;;5.99;56.93
33422;BME280;19763;55.798;37.782;2023-05-08T03:37:20;148827.44;;;6.05;56.73
33422;BME280;19763;55.798;37.782;2023-05-08T03:39:45;148849.22;;;6.14;56.93
33422;BME280;19763;55.798;37.782;2023-05-08T03:42:11;148879.84;;;6.27;56.53
33422;BME280;19763;55.798;37.782;2023-05-08T03:44:52;148888.81;;;6.30;56.82
33422;BME280;19763;55.798;37.782;2023-05-08T03:47:19;148914.38;;;6.41;57.12
33422;BME280;19763;55.798;37.782;2023-05-08T03:49:46;148932.25;;;6.48;56.48
33422;BME280;19763;55.798;37.782;2023-05-08T03:52:13;148918.19;;;6.42;57.11
33422;BME280;19763;55.798;37.782;2023-05-08T03:54:39;148946.31;;;6.53;56.56
33422;BME280;19763;55.798;37.782;2023-05-08T03:57:05;148965.47;;;6.61;56.41
33422;BME280;19763;55.798;37.782;2023-05-08T03:59:51;148993.63;;;6.72;55.82
33422;BME280;19763;55.798;37.782;2023-05-08T04:04:52;149019.22;;;6.83;53.91
33422;BME280;19763;55.798;37.782;2023-05-08T04:07:27;149039.66;;;6.91;53.77
33422;BME280;19763;55.798;37.782;2023-05-08T04:10:14;149053.72;;;6.97;54.94
33422;BME280;19763;55.798;37.782;2023-05-08T04:12:59;149035.81;;;6.89;53.82
33422;BME280;19763;55.798;37.782;2023-05-08T04:15:30;149067.78;;;7.02;53.13
33422;BME280;19763;55.798;37.782;2023-05-08T04:18:15;149058.84;;;6.99;53.74
33422;BME280;19763;55.798;37.782;2023-05-08T04:20:42;149076.75;;;7.06;52.78
33422;BME280;19763;55.798;37.782;2023-05-08T04:23:13;149108.72;;;7.19;52.70
33422;BME280;19763;55.798;37.782;2023-05-08T04:25:41;149141.97;;;7.32;52.96
33422;BME280;19763;55.798;37.782;2023-05-08T04:28:07;149149.63;;;7.35;52.68
33422;BME280;19763;55.798;37.782;2023-05-08T04:30:34;149167.59;;;7.42;53.18
33422;BME280;19763;55.798;37.782;2023-05-08T04:33:02;149228.97;;;7.67;51.41
33422;BME280;19763;55.798;37.782;2023-05-08T04:35:29;149254.56;;;7.77;51.16
33422;BME280;19763;55.798;37.782;2023-05-08T04:37:55;149310.88;;;8.00;49.64
33422;BME280;19763;55.798;37.782;2023-05-08T04:40:20;149397.94;;;8.35;50.72
33422;BME280;19763;55.798;37.782;2023-05-08T04:42:46;149436.34;;;8.51;49.69
33422;BME280;19763;55.798;37.782;2023-05-08T04:45:12;149472.25;;;8.65;48.61
33422;BME280;19763;55.798;37.782;2023-05-08T04:47:38;149497.84;;;8.75;49.92
33422;BME280;19763;55.798;37.782;2023-05-08T04:50:04;149532.44;;;8.89;48.05
33422;BME280;19763;55.798;37.782;2023-05-08T04:52:29;149666.91;;;9.43;46.32
33422;BME280;19763;55.798;37.782;2023-05-08T04:54:55;149923.34;;;10.46;44.62
33422;BME280;19763;55.798;37.782;2023-05-08T04:57:21;150124.69;;;11.27;42.83
33422;BME280;19763;55.798;37.782;2023-05-08T04:59:46;150208.16;;;11.61;40.39
33422;BME280;19763;55.798;37.782;2023-05-08T05:02:12;150418.72;;;12.45;39.69
33422;BME280;19763;55.798;37.782;2023-05-08T05:04:38;150619.19;;;13.25;38.19
33422;BME280;19763;55.798;37.782;2023-05-08T05:07:03;150619.19;;;13.25;38.59
33422;BME280;19763;55.798;37.782;2023-05-08T05:09:29;150611.41;;;13.22;36.50
33422;BME280;19763;55.798;37.782;2023-05-08T05:11:55;150556.19;;;13.00;37.58
33422;BME280;19763;55.798;37.782;2023-05-08T05:14:20;150491.97;;;12.74;37.63
33422;BME280;19763;55.798;37.782;2023-05-08T05:16:46;150524.06;;;12.87;37.88
33422;BME280;19763;55.798;37.782;2023-05-08T05:19:12;150490.66;;;12.74;37.87
33422;BME280;19763;55.798;37.782;2023-05-08T05:21:38;150444.41;;;12.55;38.58
33422;BME280;19763;55.798;37.782;2023-05-08T05:24:04;150429.00;;;12.49;37.43
33422;BME280;19763;55.798;37.782;2023-05-08T05:26:30;150421.31;;;12.46;37.31
33422;BME280;19763;55.798;37.782;2023-05-08T05:28:56;150285.19;;;11.91;37.03
33422;BME280;19763;55.798;37.782;2023-05-08T05:31:21;150296.78;;;11.96;36.98
33422;BME280;19763;55.798;37.782;2023-05-08T05:33:47;150278.75;;;11.89;39.02
33422;BME280;19763;55.798;37.782;2023-05-08T05:36:13;150267.22;;;11.84;38.07
33422;BME280;19763;55.798;37.782;2023-05-08T05:38:39;150224.84;;;11.67;37.57
33422;BME280;19763;55.798;37.782;2023-05-08T05:41:04;150272.31;;;11.86;36.83
33422;BME280;19763;55.798;37.782;2023-05-08T05:43:30;150333.97;;;12.11;36.34
33422;BME280;19763;55.798;37.782;2023-05-08T05:46:05;150464.97;;;12.64;35.80
33422;BME280;19763;55.798;37.782;2023-05-08T05:48:31;150371.25;;;12.26;36.38
33422;BME280;19763;55.798;37.782;2023-05-08T05:50:57;150411.03;;;12.42;37.68
33422;BME280;19763;55.798;37.782;2023-05-08T05:53:23;150418.72;;;12.45;36.90
33422;BME280;19763;55.798;37.782;2023-05-08T05:55:48;150384.06;;;12.31;37.68
33422;BME280;19763;55.798;37.782;2023-05-08T05:58:14;150390.47;;;12.34;37.49
33422;BME280;19763;55.798;37.782;2023-05-08T06:00:41;150369.94;;;12.25;35.84
33422;BME280;19763;55.798;37.782;2023-05-08T06:03:07;150349.41;;;12.17;36.90
33422;BME280;19763;55.798;37.782;2023-05-08T06:05:33;150358.38;;;12.21;35.73
33422;BME280;19763;55.798;37.782;2023-05-08T06:07:59;150292.91;;;11.95;36.63
33422;BME280;19763;55.798;37.782;2023-05-08T06:10:24;150313.47;;;12.03;36.94
33422;BME280;19763;55.798;37.782;2023-05-08T06:12:50;150336.56;;;12.12;37.57
33422;BME280;19763;55.798;37.782;2023-05-08T06:15:16;150283.88;;;11.91;36.72
33422;BME280;19763;55.798;37.782;2023-05-08T06:17:42;150277.44;;;11.88;35.70
33422;BME280;19763;55.798;37.782;2023-05-08T06:20:08;150314.75;;;12.03;37.16
33422;BME280;19763;55.798;37.782;2023-05-08T06:22:34;150274.91;;;11.87;37.48
33422;BME280;19763;55.798;37.782;2023-05-08T06:25:02;150254.34;;;11.79;36.80
33422;BME280;19763;55.798;37.782;2023-05-08T06:27:29;150232.53;;;11.70;36.81
33422;BME280;19763;55.798;37.782;2023-05-08T06:29:55;150194.03;;;11.55;35.24
33422;BME280;19763;55.798;37.782;2023-05-08T06:32:20;150280.00;;;11.89;35.52
33422;BME280;19763;55.798;37.782;2023-05-08T06:34:46;150307.03;;;12.00;35.73
33422;BME280;19763;55.798;37.782;2023-05-08T06:37:12;150308.31;;;12.01;35.24
33422;BME280;19763;55.798;37.782;2023-05-08T06:39:38;150344.25;;;12.15;36.02
33422;BME280;19763;55.798;37.782;2023-05-08T06:42:03;150378.94;;;12.29;35.36
33422;BME280;19763;55.798;37.782;2023-05-08T06:44:31;150408.47;;;12.41;35.44
33422;BME280;19763;55.798;37.782;2023-05-08T06:46:57;150393.06;;;12.35;35.09
33422;BME280;19763;55.798;37.782;2023-05-08T06:49:22;150344.25;;;12.15;34.38
33422;BME280;19763;55.798;37.782;2023-05-08T06:51:48;150362.22;;;12.22;33.54
33422;BME280;19763;55.798;37.782;2023-05-08T06:54:14;150440.56;;;12.54;34.24
33422;BME280;19763;55.798;37.782;2023-05-08T06:56:40;150432.88;;;12.51;33.55
33422;BME280;19763;55.798;37.782;2023-05-08T06:59:05;150402.03;;;12.38;33.22
33422;BME280;19763;55.798;37.782;2023-05-08T07:01:31;150282.59;;;11.90;33.38
33422;BME280;19763;55.798;37.782;2023-05-08T07:03:57;150228.69;;;11.69;34.19
33422;BME280;19763;55.798;37.782;2023-05-08T07:06:22;150296.78;;;11.96;34.05
33422;BME280;19763;55.798;37.782;2023-05-08T07:08:48;150354.53;;;12.19;34.99
33422;BME280;19763;55.798;37.782;2023-05-08T07:11:14;150371.25;;;12.26;36.28
33422;BME280;19763;55.798;37.782;2023-05-08T07:13:40;150390.47;;;12.34;34.61
33422;BME280;19763;55.798;37.782;2023-05-08T07:16:11;150345.56;;;12.16;34.60
33422;BME280;19763;55.798;37.782;2023-05-08T07:18:36;150386.63;;;12.32;34.74
33422;BME280;19763;55.798;37.782;2023-05-08T07:21:02;150367.38;;;12.24;34.16
33422;BME280;19763;55.798;37.782;2023-05-08T07:23:28;150346.84;;;12.16;34.68
33422;BME280;19763;55.798;37.782;2023-05-08T07:25:54;150390.47;;;12.34;34.93
33422;BME280;19763;55.798;37.782;2023-05-08T07:28:20;150375.09;;;12.28;34.47
33422;BME280;19763;55.798;37.782;2023-05-08T07:30:46;150426.44;;;12.48;34.08
33422;BME280;19763;55.798;37.782;2023-05-08T07:33:11;150430.28;;;12.50;33.42
33422;BME280;19763;55.798;37.782;2023-05-08T07:35:40;150351.94;;;12.18;33.84
33422;BME280;19763;55.798;37.782;2023-05-08T07:38:06;150339.13;;;12.13;33.47
33422;BME280;19763;55.798;37.782;2023-05-08T07:40:32;150298.03;;;11.97;33.11
33422;BME280;19763;55.798;37.782;2023-05-08T07:42:58;150282.59;;;11.90;34.67
33422;BME280;19763;55.798;37.782;2023-05-08T07:45:23;150303.19;;;11.99;34.45
33422;BME280;19763;55.798;37.782;2023-05-08T07:47:51;150155.53;;;11.39;34.17
33422;BME280;19763;55.798;37.782;2023-05-08T07:50:17;150138.81;;;11.33;35.21
33422;BME280;19763;55.798;37.782;2023-05-08T07:52:42;150138.81;;;11.33;35.59
33422;BME280;19763;55.798;37.782;2023-05-08T07:55:09;150226.13;;;11.68;36.54
33422;BME280;19763;55.798;37.782;2023-05-08T07:57:41;150269.75;;;11.85;35.52
33422;BME280;19763;55.798;37.782;2023-05-08T08:00:08;150323.69;;;12.07;34.12
33422;BME280;19763;55.798;37.782;2023-05-08T08:02:34;150398.19;;;12.37;34.82
33422;BME280;19763;55.798;37.782;2023-05-08T08:05:00;150405.94;;;12.40;34.27
33422;BME280;19763;55.798;37.782;2023-05-08T08:07:25;150420.06;;;12.46;33.59
33422;BME280;19763;55.798;37.782;2023-05-08T08:09:51;150411.03;;;12.42;32.83
33422;BME280;19763;55.798;37.782;2023-05-08T08:12:17;150441.88;;;12.54;33.49
33422;BME280;19763;55.798;37.782;2023-05-08T08:14:42;150467.56;;;12.65;34.78
33422;BME280;19763;55.798;37.782;2023-05-08T08:17:08;150494.53;;;12.75;32.30
33422;BME280;19763;55.798;37.782;2023-05-08T08:19:34;150524.06;;;12.87;32.66
33422;BME280;19763;55.798;37.782;2023-05-08T08:21:59;150549.75;;;12.98;32.86
33422;BME280;19763;55.798;37.782;2023-05-08T08:24:25;150464.97;;;12.64;32.25
33422;BME280;19763;55.798;37.782;2023-05-08T08:26:53;150453.44;;;12.59;34.15
33422;BME280;19763;55.798;37.782;2023-05-08T08:29:18;150474.00;;;12.67;33.87
33422;BME280;19763;55.798;37.782;2023-05-08T08:31:44;150425.16;;;12.48;33.90
33422;BME280;19763;55.798;37.782;2023-05-08T08:34:10;150372.50;;;12.26;31.51
33422;BME280;19763;55.798;37.782;2023-05-08T08:36:35;150387.94;;;12.33;30.68
33422;BME280;19763;55.798;37.782;2023-05-08T08:39:01;150314.75;;;12.03;30.48
33422;BME280;19763;55.798;37.782;2023-05-08T08:41:27;150182.50;;;11.50;30.63
33422;BME280;19763;55.798;37.782;2023-05-08T08:43:54;150215.84;;;11.64;31.83
33422;BME280;19763;55.798;37.782;2023-05-08T08:46:23;150258.19;;;11.81;33.83
33422;BME280;19763;55.798;37.782;2023-05-08T08:48:49;150209.41;;;11.61;33.23
33422;BME280;19763;55.798;37.782;2023-05-08T08:51:49;150214.56;;;11.63;33.09
33422;BME280;19763;55.798;37.782;2023-05-08T08:54:19;150164.53;;;11.43;33.78
33422;BME280;19763;55.798;37.782;2023-05-08T08:56:48;150164.53;;;11.43;35.15
33422;BME280;19763;55.798;37.782;2023-05-08T08:59:15;150156.78;;;11.40;34.88
33422;BME280;19763;55.798;37.782;2023-05-08T09:01:44;150179.91;;;11.49;35.75
33422;BME280;19763;55.798;37.782;2023-05-08T09:04:12;150206.88;;;11.60;33.89
33422;BME280;19763;55.798;37.782;2023-05-08T09:06:38;150132.44;;;11.30;32.91
33422;BME280;19763;55.798;37.782;2023-05-08T09:09:05;150133.72;;;11.31;32.86
33422;BME280;19763;55.798;37.782;2023-05-08T09:11:31;150138.81;;;11.33;34.69
33422;BME280;19763;55.798;37.782;2023-05-08T09:13:58;150114.47;;;11.23;33.48
33422;BME280;19763;55.798;37.782;2023-05-08T09:16:24;150152.94;;;11.38;33.79
33422;BME280;19763;55.798;37.782;2023-05-08T09:18:50;150159.38;;;11.41;32.53
33422;BME280;19763;55.798;37.782;2023-05-08T09:21:16;150097.78;;;11.16;32.11
33422;BME280;19763;55.798;37.782;2023-05-08T09:23:58;150082.41;;;11.10;33.19
33422;BME280;19763;55.798;37.782;2023-05-08T09:26:29;150106.75;;;11.20;32.66
33422;BME280;19763;55.798;37.782;2023-05-08T09:29:30;150092.63;;;11.14;33.10
33422;BME280;19763;55.798;37.782;2023-05-08T09:31:55;150129.88;;;11.29;33.28
33422;BME280;19763;55.798;37.782;2023-05-08T09:34:25;150087.53;;;11.12;32.27
33422;BME280;19763;55.798;37.782;2023-05-08T09:36:53;150169.63;;;11.45;33.67
33422;BME280;19763;55.798;37.782;2023-05-08T09:39:23;150197.88;;;11.56;34.63
33422;BME280;19763;55.798;37.782;2023-05-08T09:44:22;150283.88;;;11.91;34.56
33422;BME280;19763;55.798;37.782;2023-05-08T09:46:47;150380.19;;;12.30;33.06
33422;BME280;19763;55.798;37.782;2023-05-08T09:49:18;150387.94;;;12.33;32.60
33422;BME280;19763;55.798;37.782;2023-05-08T09:51:51;150389.22;;;12.33;32.18
33422;BME280;19763;55.798;37.782;2023-05-08T09:54:19;150372.50;;;12.26;32.37
33422;BME280;19763;55.798;37.782;2023-05-08T09:56:45;150335.28;;;12.12;31.72
33422;BME280;19763;55.798;37.782;2023-05-08T09:59:28;150323.69;;;12.07;32.62
33422;BME280;19763;55.798;37.782;2023-05-08T10:01:54;150276.16;;;11.88;31.35
33422;BME280;19763;55.798;37.782;2023-05-08T10:04:30;150285.19;;;11.91;32.13
33422;BME280;19763;55.798;37.782;2023-05-08T10:06:57;150290.34;;;11.94;33.91
33422;BME280;19763;55.798;37.782;2023-05-08T10:09:22;150326.28;;;12.08;32.76
33422;BME280;19763;55.798;37.782;2023-05-08T10:11:49;150390.47;;;12.34;32.04
33422;BME280;19763;55.798;37.782;2023-05-08T10:14:17;150402.03;;;12.38;30.74
33422;BME280;19763;55.798;37.782;2023-05-08T10:16:45;150330.13;;;12.09;30.60
33422;BME280;19763;55.798;37.782;2023-05-08T10:19:18;150323.69;;;12.07;33.03
33422;BME280;19763;55.798;37.782;2023-05-08T10:21:48;150313.47;;;12.03;31.93
33422;BME280;19763;55.798;37.782;2023-05-08T10:24:20;150268.47;;;11.85;31.83
33422;BME280;19763;55.798;37.782;2023-05-08T10:29:41;150287.72;;;11.92;32.97
33422;BME280;19763;55.798;37.782;2023-05-08T10:32:15;150177.31;;;11.48;32.45
33422;BME280;19763;55.798;37.782;2023-05-08T10:34:46;150159.38;;;11.41;32.21
33422;BME280;19763;55.798;37.782;2023-05-08T10:37:15;150208.16;;;11.61;33.10
33422;BME280;19763;55.798;37.782;2023-05-08T10:39:43;150201.72;;;11.58;33.01
33422;BME280;19763;55.798;37.782;2023-05-08T10:42:11;150190.19;;;11.53;33.36
33422;BME280;19763;55.798;37.782;2023-05-08T10:44:38;150201.72;;;11.58;32.34
33422;BME280;19763;55.798;37.782;2023-05-08T10:47:14;150206.88;;;11.60;32.34
33422;BME280;19763;55.798;37.782;2023-05-08T10:49:50;150204.31;;;11.59;33.67
33422;BME280;19763;55.798;37.782;2023-05-08T10:55:13;150229.97;;;11.69;32.21
33422;BME280;19763;55.798;37.782;2023-05-08T10:58:10;150247.94;;;11.77;33.23
33422;BME280;19763;55.798;37.782;2023-05-08T11:03:23;150251.78;;;11.78;32.82
33422;BME280;19763;55.798;37.782;2023-05-08T11:05:51;150300.63;;;11.98;32.36
33422;BME280;19763;55.798;37.782;2023-05-08T11:08:22;150328.88;;;12.09;31.56
33422;BME280;19763;55.798;37.782;2023-05-08T11:13:51;150304.47;;;11.99;33.32
33422;BME280;19763;55.798;37.782;2023-05-08T11:16:17;150304.47;;;11.99;31.29
33422;BME280;19763;55.798;37.782;2023-05-08T11:19:16;150285.19;;;11.91;29.86
33422;BME280;19763;55.798;37.782;2023-05-08T11:24:39;150282.59;;;11.90;31.14
33422;BME280;19763;55.798;37.782;2023-05-08T11:27:05;150328.88;;;12.09;31.27
33422;BME280;19763;55.798;37.782;2023-05-08T11:29:31;150344.25;;;12.15;31.77
33422;BME280;19763;55.798;37.782;2023-05-08T11:31:57;150377.66;;;12.29;31.47
33422;BME280;19763;55.798;37.782;2023-05-08T11:37:18;150413.63;;;12.43;30.67
33422;BME280;19763;55.798;37.782;2023-05-08T11:39:43;150435.44;;;12.52;31.98
33422;BME280;19763;55.798;37.782;2023-05-08T11:45:07;150395.66;;;12.36;31.38
33422;BME280;19763;55.798;37.782;2023-05-08T11:47:43;150380.19;;;12.30;30.77
33422;BME280;19763;55.798;37.782;2023-05-08T11:50:11;150344.25;;;12.15;31.61
33422;BME280;19763;55.798;37.782;2023-05-08T11:52:40;150337.81;;;12.13;31.31
33422;BME280;19763;55.798;37.782;2023-05-08T11:55:08;150307.03;;;12.00;31.19
33422;BME280;19763;55.798;37.782;2023-05-08T11:57:34;150259.47;;;11.81;29.45
33422;BME280;19763;55.798;37.782;2023-05-08T12:00:08;150273.59;;;11.87;31.31
33422;BME280;19763;55.798;37.782;2023-05-08T12:02:38;150280.00;;;11.89;31.16
33422;BME280;19763;55.798;37.782;2023-05-08T12:05:08;150287.72;;;11.92;31.77
33422;BME280;19763;55.798;37.782;2023-05-08T12:07:44;150299.34;;;11.97;32.78
33422;BME280;19763;55.798;37.782;2023-05-08T12:10:11;150286.44;;;11.92;31.97
33422;BME280;19763;55.798;37.782;2023-05-08T12:12:38;150258.19;;;11.81;32.48
33422;BME280;19763;55.798;37.782;2023-05-08T12:15:14;150208.16;;;11.61;29.21
33422;BME280;19763;55.798;37.782;2023-05-08T12:17:41;150250.50;;;11.78;31.08
33422;BME280;19763;55.798;37.782;2023-05-08T12:20:12;150190.19;;;11.53;30.81
33422;BME280;19763;55.798;37.782;2023-05-08T12:22:50;150301.88;;;11.98;31.11
33422;BME280;19763;55.798;37.782;2023-05-08T12:25:17;150326.28;;;12.08;31.39
33422;BME280;19763;55.798;37.782;2023-05-08T12:27:43;150323.69;;;12.07;30.94
33422;BME280;19763;55.798;37.782;2023-05-08T12:30:13;150286.44;;;11.92;30.80
33422;BME280;19763;55.798;37.782;2023-05-08T12:32:40;150318.59;;;12.05;31.74
33422;BME280;19763;55.798;37.782;2023-05-08T12:35:07;150362.22;;;12.22;31.88
33422;BME280;19763;55.798;37.782;2023-05-08T12:37:33;150386.63;;;12.32;31.01
33422;BME280;19763;55.798;37.782;2023-05-08T12:39:59;150385.38;;;12.32;32.88
33422;BME280;19763;55.798;37.782;2023-05-08T12:42:49;150399.50;;;12.37;31.55
33422;BME280;19763;55.798;37.782;2023-05-08T12:45:26;150386.63;;;12.32;32.17
33422;BME280;19763;55.798;37.782;2023-05-08T12:47:57;150363.53;;;12.23;31.03
33422;BME280;19763;55.798;37.782;2023-05-08T12:50:23;150362.22;;;12.22;31.53
33422;BME280;19763;55.798;37.782;2023-05-08T12:52:52;150331.44;;;12.10;30.68
33422;BME280;19763;55.798;37.782;2023-05-08T12:57:57;150369.94;;;12.25;30.33
33422;BME280;19763;55.798;37.782;2023-05-08T13:00:24;150354.53;;;12.19;30.51
33422;BME280;19763;55.798;37.782;2023-05-08T13:02:51;150341.72;;;12.14;31.37
33422;BME280;19763;55.798;37.782;2023-05-08T13:05:19;150348.09;;;12.17;31.42
33422;BME280;19763;55.798;37.782;2023-05-08T13:07:45;150362.22;;;12.22;31.61
33422;BME280;19763;55.798;37.782;2023-05-08T13:10:11;150291.59;;;11.94;30.58
33422;BME280;19763;55.798;37.782;2023-05-08T13:12:36;150307.03;;;12.00;31.80
33422;BME280;19763;55.798;37.782;2023-05-08T13:15:02;150310.88;;;12.02;32.37
33422;BME280;19763;55.798;37.782;2023-05-08T13:17:29;150294.19;;;11.95;31.64
33422;BME280;19763;55.798;37.782;2023-05-08T13:19:55;150274.91;;;11.87;31.38
33422;BME280;19763;55.798;37.782;2023-05-08T13:22:21;150292.91;;;11.95;31.07
33422;BME280;19763;55.798;37.782;2023-05-08T13:24:51;150289.03;;;11.93;31.80
33422;BME280;19763;55.798;37.782;2023-05-08T13:27:16;150282.59;;;11.90;32.39
33422;BME280;19763;55.798;37.782;2023-05-08T13:29:42;150280.00;;;11.89;32.76
33422;BME280;19763;55.798;37.782;2023-05-08T13:32:08;150287.72;;;11.92;31.89
33422;BME280;19763;55.798;37.782;2023-05-08T13:34:34;150283.88;;;11.91;31.59
33422;BME280;19763;55.798;37.782;2023-05-08T13:36:59;150298.03;;;11.97;33.75
33422;BME280;19763;55.798;37.782;2023-05-08T13:39:25;150287.72;;;11.92;32.53
33422;BME280;19763;55.798;37.782;2023-05-08T13:41:50;150291.59;;;11.94;31.67